sensor_id;sensor_type;location;lat;lon;timestamp;temperature;humidity
42099;DHT22;27758;55.900;8.516;2022-10-31T00:01:18;14.20;99.90
42099;DHT22;27758;55.900;8.516;2022-10-31T00:03:45;14.20;99.90
42099;DHT22;27758;55.900;8.516;2022-10-31T00:06:11;14.10;99.90
42099;DHT22;27758;55.900;8.516;2022-10-31T00:08:37;14.10;99.90
42099;DHT22;27758;55.900;8.516;2022-10-31T00:11:03;14.20;99.90
42099;DHT22;27758;55.900;8.516;2022-10-31T00:13:28;14.10;99.90
42099;DHT22;27758;55.900;8.516;2022-10-31T00:15:54;14.10;99.90
42099;DHT22;27758;55.900;8.516;2022-10-31T00:18:20;14.10;99.90
42099;DHT22;27758;55.900;8.516;2022-10-31T00:20:46;14.00;99.90
42099;DHT22;27758;55.900;8.516;2022-10-31T00:23:11;14.00;99.90
42099;DHT22;27758;55.900;8.516;2022-10-31T00:25:39;14.00;99.90
42099;DHT22;27758;55.900;8.516;2022-10-31T00:28:07;14.00;99.90
42099;DHT22;27758;55.900;8.516;2022-10-31T00:30:33;13.90;99.90
42099;DHT22;27758;55.900;8.516;2022-10-31T00:32:59;13.90;99.90
42099;DHT22;27758;55.900;8.516;2022-10-31T00:35:24;13.90;99.90
42099;DHT22;27758;55.900;8.516;2022-10-31T00:37:52;13.90;99.90
42099;DHT22;27758;55.900;8.516;2022-10-31T00:40:18;13.90;99.90
42099;DHT22;27758;55.900;8.516;2022-10-31T00:42:44;13.90;99.90
42099;DHT22;27758;55.900;8.516;2022-10-31T00:45:10;13.90;99.90
42099;DHT22;27758;55.900;8.516;2022-10-31T00:47:36;13.90;99.90
42099;DHT22;27758;55.900;8.516;2022-10-31T00:50:04;13.80;99.90
42099;DHT22;27758;55.900;8.516;2022-10-31T00:52:29;13.70;99.90
42099;DHT22;27758;55.900;8.516;2022-10-31T00:54:55;13.70;99.90
42099;DHT22;27758;55.900;8.516;2022-10-31T00:57:21;13.70;99.90
42099;DHT22;27758;55.900;8.516;2022-10-31T00:59:47;13.70;99.90
42099;DHT22;27758;55.900;8.516;2022-10-31T01:02:12;13.70;99.90
42099;DHT22;27758;55.900;8.516;2022-10-31T01:04:38;13.60;99.90
42099;DHT22;27758;55.900;8.516;2022-10-31T01:07:04;13.60;99.90
42099;DHT22;27758;55.900;8.516;2022-10-31T01:09:30;13.60;99.90
42099;DHT22;27758;55.900;8.516;2022-10-31T01:11:56;13.50;99.90
42099;DHT22;27758;55.900;8.516;2022-10-31T01:14:21;13.50;99.90
42099;DHT22;27758;55.900;8.516;2022-10-31T01:16:47;13.40;99.90
42099;DHT22;27758;55.900;8.516;2022-10-31T01:19:13;13.40;99.90
42099;DHT22;27758;55.900;8.516;2022-10-31T01:21:39;13.30;99.90
42099;DHT22;27758;55.900;8.516;2022-10-31T01:24:05;13.30;99.90
42099;DHT22;27758;55.900;8.516;2022-10-31T01:26:32;13.20;99.90
42099;DHT22;27758;55.900;8.516;2022-10-31T01:29:00;13.20;99.90
42099;DHT22;27758;55.900;8.516;2022-10-31T01:31:29;13.30;99.90
42099;DHT22;27758;55.900;8.516;2022-10-31T01:33:55;13.20;99.90
42099;DHT22;27758;55.900;8.516;2022-10-31T01:36:27;13.20;99.90
42099;DHT22;27758;55.900;8.516;2022-10-31T01:38:56;13.10;99.90
42099;DHT22;27758;55.900;8.516;2022-10-31T01:41:25;13.10;99.90
42099;DHT22;27758;55.900;8.516;2022-10-31T01:43:57;13.10;99.90
42099;DHT22;27758;55.900;8.516;2022-10-31T01:46:30;13.10;99.90
42099;DHT22;27758;55.900;8.516;2022-10-31T01:49:00;13.00;99.90
42099;DHT22;27758;55.900;8.516;2022-10-31T01:51:30;13.00;99.90
42099;DHT22;27758;55.900;8.516;2022-10-31T01:54:04;13.00;99.90
42099;DHT22;27758;55.900;8.516;2022-10-31T01:56:32;12.90;99.90
42099;DHT22;27758;55.900;8.516;2022-10-31T01:59:00;13.00;99.90
42099;DHT22;27758;55.900;8.516;2022-10-31T02:01:27;12.90;99.90
42099;DHT22;27758;55.900;8.516;2022-10-31T02:03:55;12.90;99.90
42099;DHT22;27758;55.900;8.516;2022-10-31T02:06:49;12.90;99.90
42099;DHT22;27758;55.900;8.516;2022-10-31T02:09:17;12.90;99.90
42099;DHT22;27758;55.900;8.516;2022-10-31T02:11:51;12.70;99.90
42099;DHT22;27758;55.900;8.516;2022-10-31T02:14:18;12.80;99.90
42099;DHT22;27758;55.900;8.516;2022-10-31T02:16:44;12.80;99.90
42099;DHT22;27758;55.900;8.516;2022-10-31T02:19:12;12.80;99.90
42099;DHT22;27758;55.900;8.516;2022-10-31T02:21:52;12.80;99.90
42099;DHT22;27758;55.900;8.516;2022-10-31T02:24:31;12.70;99.90
42099;DHT22;27758;55.900;8.516;2022-10-31T02:27:28;12.70;99.90
42099;DHT22;27758;55.900;8.516;2022-10-31T02:30:21;12.80;99.90
42099;DHT22;27758;55.900;8.516;2022-10-31T02:32:51;12.80;99.90
42099;DHT22;27758;55.900;8.516;2022-10-31T02:35:40;12.70;99.90
42099;DHT22;27758;55.900;8.516;2022-10-31T02:44:11;12.80;99.90
42099;DHT22;27758;55.900;8.516;2022-10-31T02:49:46;12.90;99.90
42099;DHT22;27758;55.900;8.516;2022-10-31T02:52:21;12.90;99.90
42099;DHT22;27758;55.900;8.516;2022-10-31T02:54:49;13.00;99.90
42099;DHT22;27758;55.900;8.516;2022-10-31T02:57:19;12.90;99.90
42099;DHT22;27758;55.900;8.516;2022-10-31T02:59:52;12.90;99.90
42099;DHT22;27758;55.900;8.516;2022-10-31T03:02:27;12.90;99.90
42099;DHT22;27758;55.900;8.516;2022-10-31T03:07:48;12.90;99.90
42099;DHT22;27758;55.900;8.516;2022-10-31T03:10:55;12.80;99.90
42099;DHT22;27758;55.900;8.516;2022-10-31T03:16:16;12.70;99.90
42099;DHT22;27758;55.900;8.516;2022-10-31T03:18:49;12.70;99.90
42099;DHT22;27758;55.900;8.516;2022-10-31T03:21:29;12.70;99.90
42099;DHT22;27758;55.900;8.516;2022-10-31T03:23:56;12.70;99.90
42099;DHT22;27758;55.900;8.516;2022-10-31T03:26:24;12.70;99.90
42099;DHT22;27758;55.900;8.516;2022-10-31T03:29:12;12.70;99.90
42099;DHT22;27758;55.900;8.516;2022-10-31T03:31:44;12.70;99.90
42099;DHT22;27758;55.900;8.516;2022-10-31T03:34:13;12.70;99.90
42099;DHT22;27758;55.900;8.516;2022-10-31T03:36:40;12.70;99.90
42099;DHT22;27758;55.900;8.516;2022-10-31T03:39:09;12.70;99.90
42099;DHT22;27758;55.900;8.516;2022-10-31T03:41:40;12.70;99.90
42099;DHT22;27758;55.900;8.516;2022-10-31T03:44:17;12.60;99.90
42099;DHT22;27758;55.900;8.516;2022-10-31T03:46:45;12.60;99.90
42099;DHT22;27758;55.900;8.516;2022-10-31T03:49:11;12.60;99.90
42099;DHT22;27758;55.900;8.516;2022-10-31T03:56:53;12.40;99.90
42099;DHT22;27758;55.900;8.516;2022-10-31T03:59:33;12.40;99.90
42099;DHT22;27758;55.900;8.516;2022-10-31T04:02:05;12.40;99.90
42099;DHT22;27758;55.900;8.516;2022-10-31T04:04:32;12.30;99.90
42099;DHT22;27758;55.900;8.516;2022-10-31T04:07:00;12.20;99.90
42099;DHT22;27758;55.900;8.516;2022-10-31T04:09:28;12.20;99.90
42099;DHT22;27758;55.900;8.516;2022-10-31T04:11:56;12.10;99.90
42099;DHT22;27758;55.900;8.516;2022-10-31T04:14:25;12.10;99.90
42099;DHT22;27758;55.900;8.516;2022-10-31T04:16:52;12.00;99.90
42099;DHT22;27758;55.900;8.516;2022-10-31T04:19:17;12.10;99.90
42099;DHT22;27758;55.900;8.516;2022-10-31T04:21:43;12.10;99.90
42099;DHT22;27758;55.900;8.516;2022-10-31T04:24:10;12.10;99.90
42099;DHT22;27758;55.900;8.516;2022-10-31T04:26:36;12.00;99.90
42099;DHT22;27758;55.900;8.516;2022-10-31T04:29:02;12.00;99.90
42099;DHT22;27758;55.900;8.516;2022-10-31T04:31:27;12.00;99.90
42099;DHT22;27758;55.900;8.516;2022-10-31T04:33:53;12.00;99.90
42099;DHT22;27758;55.900;8.516;2022-10-31T04:36:19;12.00;99.90
42099;DHT22;27758;55.900;8.516;2022-10-31T04:38:45;12.00;99.90
42099;DHT22;27758;55.900;8.516;2022-10-31T04:41:10;12.00;99.90
42099;DHT22;27758;55.900;8.516;2022-10-31T04:43:36;12.00;99.90
42099;DHT22;27758;55.900;8.516;2022-10-31T04:46:02;12.00;99.90
42099;DHT22;27758;55.900;8.516;2022-10-31T04:48:28;12.00;99.90
42099;DHT22;27758;55.900;8.516;2022-10-31T04:50:59;11.90;99.90
42099;DHT22;27758;55.900;8.516;2022-10-31T04:53:25;11.90;99.90
42099;DHT22;27758;55.900;8.516;2022-10-31T04:55:51;11.80;99.90
42099;DHT22;27758;55.900;8.516;2022-10-31T04:58:16;11.80;99.90
42099;DHT22;27758;55.900;8.516;2022-10-31T05:00:42;11.80;99.90
42099;DHT22;27758;55.900;8.516;2022-10-31T05:03:08;11.70;99.90
42099;DHT22;27758;55.900;8.516;2022-10-31T05:05:33;11.70;99.90
42099;DHT22;27758;55.900;8.516;2022-10-31T05:07:59;11.70;99.90
42099;DHT22;27758;55.900;8.516;2022-10-31T05:10:27;11.60;99.90
42099;DHT22;27758;55.900;8.516;2022-10-31T05:12:55;11.70;99.90
42099;DHT22;27758;55.900;8.516;2022-10-31T05:15:23;11.70;99.90
42099;DHT22;27758;55.900;8.516;2022-10-31T05:17:49;11.60;99.90
42099;DHT22;27758;55.900;8.516;2022-10-31T05:20:17;11.60;99.90
42099;DHT22;27758;55.900;8.516;2022-10-31T05:22:45;11.50;99.90
42099;DHT22;27758;55.900;8.516;2022-10-31T05:25:11;11.50;99.90
42099;DHT22;27758;55.900;8.516;2022-10-31T05:27:45;11.50;99.90
42099;DHT22;27758;55.900;8.516;2022-10-31T05:30:14;11.60;99.90
42099;DHT22;27758;55.900;8.516;2022-10-31T05:32:42;11.50;99.90
42099;DHT22;27758;55.900;8.516;2022-10-31T05:35:10;11.30;99.90
42099;DHT22;27758;55.900;8.516;2022-10-31T05:37:36;11.40;99.90
42099;DHT22;27758;55.900;8.516;2022-10-31T05:40:07;11.30;99.90
42099;DHT22;27758;55.900;8.516;2022-10-31T05:42:33;11.30;99.90
42099;DHT22;27758;55.900;8.516;2022-10-31T05:44:59;11.30;99.90
42099;DHT22;27758;55.900;8.516;2022-10-31T05:47:25;11.40;99.90
42099;DHT22;27758;55.900;8.516;2022-10-31T05:49:51;11.50;99.90
42099;DHT22;27758;55.900;8.516;2022-10-31T05:52:17;11.60;99.90
42099;DHT22;27758;55.900;8.516;2022-10-31T05:54:43;11.60;99.90
42099;DHT22;27758;55.900;8.516;2022-10-31T05:57:09;11.60;99.90
42099;DHT22;27758;55.900;8.516;2022-10-31T05:59:35;11.70;99.90
42099;DHT22;27758;55.900;8.516;2022-10-31T06:02:01;11.70;99.90
42099;DHT22;27758;55.900;8.516;2022-10-31T06:04:26;11.70;99.90
42099;DHT22;27758;55.900;8.516;2022-10-31T06:06:52;11.60;99.90
42099;DHT22;27758;55.900;8.516;2022-10-31T06:09:18;11.60;99.90
42099;DHT22;27758;55.900;8.516;2022-10-31T06:11:44;11.60;99.90
42099;DHT22;27758;55.900;8.516;2022-10-31T06:14:09;11.50;99.90
42099;DHT22;27758;55.900;8.516;2022-10-31T06:16:35;11.40;99.90
42099;DHT22;27758;55.900;8.516;2022-10-31T06:19:01;11.40;99.90
42099;DHT22;27758;55.900;8.516;2022-10-31T06:21:27;11.30;99.90
42099;DHT22;27758;55.900;8.516;2022-10-31T06:23:53;11.30;99.90
42099;DHT22;27758;55.900;8.516;2022-10-31T06:26:18;11.30;99.90
42099;DHT22;27758;55.900;8.516;2022-10-31T06:28:44;11.40;99.90
42099;DHT22;27758;55.900;8.516;2022-10-31T06:31:10;11.20;99.90
42099;DHT22;27758;55.900;8.516;2022-10-31T06:33:36;11.20;99.90
42099;DHT22;27758;55.900;8.516;2022-10-31T06:36:02;11.30;99.90
42099;DHT22;27758;55.900;8.516;2022-10-31T06:38:28;11.20;99.90
42099;DHT22;27758;55.900;8.516;2022-10-31T06:40:54;11.30;99.90
42099;DHT22;27758;55.900;8.516;2022-10-31T06:43:21;11.30;99.90
42099;DHT22;27758;55.900;8.516;2022-10-31T06:45:47;11.30;99.90
42099;DHT22;27758;55.900;8.516;2022-10-31T06:48:13;11.30;99.90
42099;DHT22;27758;55.900;8.516;2022-10-31T06:50:39;11.20;99.90
42099;DHT22;27758;55.900;8.516;2022-10-31T06:53:04;11.30;99.90
42099;DHT22;27758;55.900;8.516;2022-10-31T06:55:30;11.30;99.90
42099;DHT22;27758;55.900;8.516;2022-10-31T06:57:58;11.30;99.90
42099;DHT22;27758;55.900;8.516;2022-10-31T07:00:26;11.40;99.90
42099;DHT22;27758;55.900;8.516;2022-10-31T07:03:01;11.40;99.90
42099;DHT22;27758;55.900;8.516;2022-10-31T07:05:27;11.40;99.90
42099;DHT22;27758;55.900;8.516;2022-10-31T07:07:58;11.40;99.90
42099;DHT22;27758;55.900;8.516;2022-10-31T07:10:26;11.50;99.90
42099;DHT22;27758;55.900;8.516;2022-10-31T07:13:00;11.60;99.90
42099;DHT22;27758;55.900;8.516;2022-10-31T07:15:27;11.70;99.90
42099;DHT22;27758;55.900;8.516;2022-10-31T07:17:54;11.80;99.90
42099;DHT22;27758;55.900;8.516;2022-10-31T07:20:20;11.80;99.90
42099;DHT22;27758;55.900;8.516;2022-10-31T07:22:45;11.80;99.90
42099;DHT22;27758;55.900;8.516;2022-10-31T07:25:11;11.80;99.90
42099;DHT22;27758;55.900;8.516;2022-10-31T07:27:38;11.70;99.90
42099;DHT22;27758;55.900;8.516;2022-10-31T07:30:05;11.90;99.90
42099;DHT22;27758;55.900;8.516;2022-10-31T07:32:41;11.90;99.90
42099;DHT22;27758;55.900;8.516;2022-10-31T07:35:09;12.00;99.90
42099;DHT22;27758;55.900;8.516;2022-10-31T07:37:35;12.00;99.90
42099;DHT22;27758;55.900;8.516;2022-10-31T07:40:02;12.00;99.90
42099;DHT22;27758;55.900;8.516;2022-10-31T07:42:28;12.00;99.90
42099;DHT22;27758;55.900;8.516;2022-10-31T07:44:54;11.90;99.90
42099;DHT22;27758;55.900;8.516;2022-10-31T07:47:20;11.90;99.90
42099;DHT22;27758;55.900;8.516;2022-10-31T07:49:46;12.00;99.90
42099;DHT22;27758;55.900;8.516;2022-10-31T07:52:12;12.10;99.90
42099;DHT22;27758;55.900;8.516;2022-10-31T07:54:38;12.40;99.90
42099;DHT22;27758;55.900;8.516;2022-10-31T07:57:04;12.70;99.90
42099;DHT22;27758;55.900;8.516;2022-10-31T07:59:30;12.90;99.90
42099;DHT22;27758;55.900;8.516;2022-10-31T08:01:56;12.90;99.90
42099;DHT22;27758;55.900;8.516;2022-10-31T08:04:22;12.80;99.90
42099;DHT22;27758;55.900;8.516;2022-10-31T08:06:47;12.80;99.90
42099;DHT22;27758;55.900;8.516;2022-10-31T08:09:13;12.80;99.90
42099;DHT22;27758;55.900;8.516;2022-10-31T08:11:39;12.90;99.90
42099;DHT22;27758;55.900;8.516;2022-10-31T08:14:05;13.10;99.90
42099;DHT22;27758;55.900;8.516;2022-10-31T08:16:31;13.20;99.90
42099;DHT22;27758;55.900;8.516;2022-10-31T08:18:57;13.50;99.90
42099;DHT22;27758;55.900;8.516;2022-10-31T08:21:22;14.00;99.90
42099;DHT22;27758;55.900;8.516;2022-10-31T08:23:48;14.70;99.90
42099;DHT22;27758;55.900;8.516;2022-10-31T08:26:14;15.20;99.90
42099;DHT22;27758;55.900;8.516;2022-10-31T08:28:40;15.70;99.90
42099;DHT22;27758;55.900;8.516;2022-10-31T08:31:05;16.00;99.90
42099;DHT22;27758;55.900;8.516;2022-10-31T08:33:31;16.50;99.90
42099;DHT22;27758;55.900;8.516;2022-10-31T08:36:00;16.60;99.90
42099;DHT22;27758;55.900;8.516;2022-10-31T08:38:26;16.60;99.90
42099;DHT22;27758;55.900;8.516;2022-10-31T08:40:52;16.80;99.90
42099;DHT22;27758;55.900;8.516;2022-10-31T08:43:18;17.00;99.90
42099;DHT22;27758;55.900;8.516;2022-10-31T08:45:48;17.30;99.90
42099;DHT22;27758;55.900;8.516;2022-10-31T08:48:15;17.20;99.90
42099;DHT22;27758;55.900;8.516;2022-10-31T08:50:43;16.70;99.90
42099;DHT22;27758;55.900;8.516;2022-10-31T08:53:15;16.20;99.90
42099;DHT22;27758;55.900;8.516;2022-10-31T08:55:41;15.90;99.90
42099;DHT22;27758;55.900;8.516;2022-10-31T08:58:13;16.10;99.90
42099;DHT22;27758;55.900;8.516;2022-10-31T09:00:39;16.60;99.90
42099;DHT22;27758;55.900;8.516;2022-10-31T09:03:23;17.00;99.90
42099;DHT22;27758;55.900;8.516;2022-10-31T09:05:50;17.60;99.90
42099;DHT22;27758;55.900;8.516;2022-10-31T09:08:19;17.50;99.90
42099;DHT22;27758;55.900;8.516;2022-10-31T09:10:45;16.90;99.90
42099;DHT22;27758;55.900;8.516;2022-10-31T09:13:14;16.40;99.90
42099;DHT22;27758;55.900;8.516;2022-10-31T09:15:43;16.00;99.90
42099;DHT22;27758;55.900;8.516;2022-10-31T09:18:10;15.90;99.90
42099;DHT22;27758;55.900;8.516;2022-10-31T09:20:37;16.40;99.90
42099;DHT22;27758;55.900;8.516;2022-10-31T09:23:16;16.60;99.90
42099;DHT22;27758;55.900;8.516;2022-10-31T09:25:43;16.90;99.90
42099;DHT22;27758;55.900;8.516;2022-10-31T09:28:11;17.10;99.90
42099;DHT22;27758;55.900;8.516;2022-10-31T09:30:38;17.30;99.90
42099;DHT22;27758;55.900;8.516;2022-10-31T09:33:06;17.60;99.90
42099;DHT22;27758;55.900;8.516;2022-10-31T09:35:33;17.80;99.90
42099;DHT22;27758;55.900;8.516;2022-10-31T09:38:01;17.90;99.90
42099;DHT22;27758;55.900;8.516;2022-10-31T09:40:38;17.70;99.90
42099;DHT22;27758;55.900;8.516;2022-10-31T09:51:39;18.70;99.90
42099;DHT22;27758;55.900;8.516;2022-10-31T09:55:08;18.50;99.90
42099;DHT22;27758;55.900;8.516;2022-10-31T09:57:24;18.30;99.90
42099;DHT22;27758;55.900;8.516;2022-10-31T09:59:51;18.70;99.90
42099;DHT22;27758;55.900;8.516;2022-10-31T10:05:03;18.80;99.90
42099;DHT22;27758;55.900;8.516;2022-10-31T10:10:17;18.10;99.90
42099;DHT22;27758;55.900;8.516;2022-10-31T10:15:48;17.80;99.90
42099;DHT22;27758;55.900;8.516;2022-10-31T10:18:30;17.80;99.90
42099;DHT22;27758;55.900;8.516;2022-10-31T10:21:20;17.30;99.90
42099;DHT22;27758;55.900;8.516;2022-10-31T10:24:01;17.00;99.90
42099;DHT22;27758;55.900;8.516;2022-10-31T10:26:37;16.80;99.90
42099;DHT22;27758;55.900;8.516;2022-10-31T10:32:21;16.70;99.90
42099;DHT22;27758;55.900;8.516;2022-10-31T10:34:51;16.70;99.90
42099;DHT22;27758;55.900;8.516;2022-10-31T10:37:32;16.50;99.90
42099;DHT22;27758;55.900;8.516;2022-10-31T10:40:11;16.30;99.90
42099;DHT22;27758;55.900;8.516;2022-10-31T10:42:39;16.10;99.90
42099;DHT22;27758;55.900;8.516;2022-10-31T10:45:24;15.90;99.90
42099;DHT22;27758;55.900;8.516;2022-10-31T10:48:16;15.90;99.90
42099;DHT22;27758;55.900;8.516;2022-10-31T10:50:48;16.20;99.90
42099;DHT22;27758;55.900;8.516;2022-10-31T10:53:46;16.80;99.90
42099;DHT22;27758;55.900;8.516;2022-10-31T10:56:44;16.90;99.90
42099;DHT22;27758;55.900;8.516;2022-10-31T10:59:17;16.80;99.90
42099;DHT22;27758;55.900;8.516;2022-10-31T11:01:44;16.70;99.90
42099;DHT22;27758;55.900;8.516;2022-10-31T11:07:02;17.50;99.90
42099;DHT22;27758;55.900;8.516;2022-10-31T11:09:28;18.20;99.90
42099;DHT22;27758;55.900;8.516;2022-10-31T11:11:55;19.10;99.90
42099;DHT22;27758;55.900;8.516;2022-10-31T11:14:22;19.70;99.90
42099;DHT22;27758;55.900;8.516;2022-10-31T11:16:54;19.60;99.90
42099;DHT22;27758;55.900;8.516;2022-10-31T11:19:21;19.10;99.90
42099;DHT22;27758;55.900;8.516;2022-10-31T11:21:48;18.50;99.90
42099;DHT22;27758;55.900;8.516;2022-10-31T11:24:17;18.00;99.90
42099;DHT22;27758;55.900;8.516;2022-10-31T11:26:47;18.30;99.90
42099;DHT22;27758;55.900;8.516;2022-10-31T11:29:22;18.90;99.90
42099;DHT22;27758;55.900;8.516;2022-10-31T11:31:53;19.10;99.90
42099;DHT22;27758;55.900;8.516;2022-10-31T11:34:35;18.80;99.90
42099;DHT22;27758;55.900;8.516;2022-10-31T11:37:09;18.50;99.90
42099;DHT22;27758;55.900;8.516;2022-10-31T11:39:41;18.40;99.90
42099;DHT22;27758;55.900;8.516;2022-10-31T11:42:07;18.90;99.90
42099;DHT22;27758;55.900;8.516;2022-10-31T11:44:33;19.30;99.90
42099;DHT22;27758;55.900;8.516;2022-10-31T11:47:13;19.30;99.90
42099;DHT22;27758;55.900;8.516;2022-10-31T11:49:41;19.40;99.90
42099;DHT22;27758;55.900;8.516;2022-10-31T11:52:30;19.70;99.90
42099;DHT22;27758;55.900;8.516;2022-10-31T11:55:16;20.00;99.90
42099;DHT22;27758;55.900;8.516;2022-10-31T11:57:48;19.90;99.90
42099;DHT22;27758;55.900;8.516;2022-10-31T12:00:56;19.70;99.90
42099;DHT22;27758;55.900;8.516;2022-10-31T12:08:41;18.70;99.90
42099;DHT22;27758;55.900;8.516;2022-10-31T12:11:34;18.20;99.90
42099;DHT22;27758;55.900;8.516;2022-10-31T12:14:21;17.90;99.90
42099;DHT22;27758;55.900;8.516;2022-10-31T12:17:01;17.50;99.90
42099;DHT22;27758;55.900;8.516;2022-10-31T12:19:35;17.20;99.90
42099;DHT22;27758;55.900;8.516;2022-10-31T12:25:28;17.40;99.90
42099;DHT22;27758;55.900;8.516;2022-10-31T12:31:03;17.50;99.90
42099;DHT22;27758;55.900;8.516;2022-10-31T12:33:38;17.40;99.90
42099;DHT22;27758;55.900;8.516;2022-10-31T12:45:17;16.80;99.90
42099;DHT22;27758;55.900;8.516;2022-10-31T12:53:50;16.80;99.90
42099;DHT22;27758;55.900;8.516;2022-10-31T13:02:06;17.10;99.90
42099;DHT22;27758;55.900;8.516;2022-10-31T13:04:56;17.00;99.90
42099;DHT22;27758;55.900;8.516;2022-10-31T13:07:32;17.10;99.90
42099;DHT22;27758;55.900;8.516;2022-10-31T13:10:07;17.20;99.90
42099;DHT22;27758;55.900;8.516;2022-10-31T13:12:39;17.40;99.90
42099;DHT22;27758;55.900;8.516;2022-10-31T13:15:16;17.40;99.90
42099;DHT22;27758;55.900;8.516;2022-10-31T13:17:52;17.50;99.90
42099;DHT22;27758;55.900;8.516;2022-10-31T13:20:38;17.50;99.90
42099;DHT22;27758;55.900;8.516;2022-10-31T13:25:46;17.60;99.90
42099;DHT22;27758;55.900;8.516;2022-10-31T13:28:29;17.70;99.90
42099;DHT22;27758;55.900;8.516;2022-10-31T13:30:56;17.70;99.90
42099;DHT22;27758;55.900;8.516;2022-10-31T13:36:19;18.10;99.90
42099;DHT22;27758;55.900;8.516;2022-10-31T13:38:51;18.20;99.90
42099;DHT22;27758;55.900;8.516;2022-10-31T13:44:22;17.70;99.90
42099;DHT22;27758;55.900;8.516;2022-10-31T13:46:53;17.60;99.90
42099;DHT22;27758;55.900;8.516;2022-10-31T13:54:37;16.80;99.90
42099;DHT22;27758;55.900;8.516;2022-10-31T13:57:16;16.50;99.90
42099;DHT22;27758;55.900;8.516;2022-10-31T13:59:52;16.40;99.90
42099;DHT22;27758;55.900;8.516;2022-10-31T14:02:27;16.30;99.90
42099;DHT22;27758;55.900;8.516;2022-10-31T14:05:06;16.20;99.90
42099;DHT22;27758;55.900;8.516;2022-10-31T14:07:44;16.10;99.90
42099;DHT22;27758;55.900;8.516;2022-10-31T14:12:47;15.80;99.90
42099;DHT22;27758;55.900;8.516;2022-10-31T14:17:57;15.70;99.90
42099;DHT22;27758;55.900;8.516;2022-10-31T14:20:39;15.70;99.90
42099;DHT22;27758;55.900;8.516;2022-10-31T14:28:43;15.50;99.90
42099;DHT22;27758;55.900;8.516;2022-10-31T14:31:55;15.50;99.90
42099;DHT22;27758;55.900;8.516;2022-10-31T14:39:39;15.30;99.90
42099;DHT22;27758;55.900;8.516;2022-10-31T14:48:01;15.20;99.90
42099;DHT22;27758;55.900;8.516;2022-10-31T14:50:47;15.20;99.90
42099;DHT22;27758;55.900;8.516;2022-10-31T14:53:33;15.20;99.90
42099;DHT22;27758;55.900;8.516;2022-10-31T14:55:59;15.10;99.90
42099;DHT22;27758;55.900;8.516;2022-10-31T14:58:43;15.10;99.90
42099;DHT22;27758;55.900;8.516;2022-10-31T15:01:30;15.10;99.90
42099;DHT22;27758;55.900;8.516;2022-10-31T15:04:15;15.00;99.90
42099;DHT22;27758;55.900;8.516;2022-10-31T15:06:47;14.90;99.90
42099;DHT22;27758;55.900;8.516;2022-10-31T15:09:23;14.90;99.90
42099;DHT22;27758;55.900;8.516;2022-10-31T15:11:49;14.80;99.90
42099;DHT22;27758;55.900;8.516;2022-10-31T15:14:23;14.70;99.90
42099;DHT22;27758;55.900;8.516;2022-10-31T15:16:50;14.60;99.90
42099;DHT22;27758;55.900;8.516;2022-10-31T15:19:21;14.50;99.90
42099;DHT22;27758;55.900;8.516;2022-10-31T15:21:50;14.50;99.90
42099;DHT22;27758;55.900;8.516;2022-10-31T15:24:16;14.40;99.90
42099;DHT22;27758;55.900;8.516;2022-10-31T15:26:51;14.30;99.90
42099;DHT22;27758;55.900;8.516;2022-10-31T15:29:20;14.30;99.90
42099;DHT22;27758;55.900;8.516;2022-10-31T15:31:59;14.20;99.90
42099;DHT22;27758;55.900;8.516;2022-10-31T15:34:41;14.20;99.90
42099;DHT22;27758;55.900;8.516;2022-10-31T15:37:17;14.20;99.90
42099;DHT22;27758;55.900;8.516;2022-10-31T15:39:44;14.10;99.90
42099;DHT22;27758;55.900;8.516;2022-10-31T15:45:04;14.10;99.90
42099;DHT22;27758;55.900;8.516;2022-10-31T15:47:31;14.10;99.90
42099;DHT22;27758;55.900;8.516;2022-10-31T15:49:59;14.00;99.90
42099;DHT22;27758;55.900;8.516;2022-10-31T15:52:36;13.90;99.90
42099;DHT22;27758;55.900;8.516;2022-10-31T15:55:21;13.80;99.90
42099;DHT22;27758;55.900;8.516;2022-10-31T15:57:53;13.70;99.90
42099;DHT22;27758;55.900;8.516;2022-10-31T16:00:29;13.60;99.90
42099;DHT22;27758;55.900;8.516;2022-10-31T16:08:47;13.70;99.90
42099;DHT22;27758;55.900;8.516;2022-10-31T16:11:38;13.80;99.90
42099;DHT22;27758;55.900;8.516;2022-10-31T16:14:18;13.80;99.90
42099;DHT22;27758;55.900;8.516;2022-10-31T16:16:49;13.80;99.90
42099;DHT22;27758;55.900;8.516;2022-10-31T16:22:02;13.80;99.90
42099;DHT22;27758;55.900;8.516;2022-10-31T16:24:31;13.80;99.90
42099;DHT22;27758;55.900;8.516;2022-10-31T16:27:05;13.70;99.90
42099;DHT22;27758;55.900;8.516;2022-10-31T16:29:43;13.70;99.90
42099;DHT22;27758;55.900;8.516;2022-10-31T16:32:36;13.60;99.90
42099;DHT22;27758;55.900;8.516;2022-10-31T16:37:40;13.60;99.90
42099;DHT22;27758;55.900;8.516;2022-10-31T16:40:07;13.60;99.90
42099;DHT22;27758;55.900;8.516;2022-10-31T16:42:33;13.60;99.90
42099;DHT22;27758;55.900;8.516;2022-10-31T16:44:59;13.60;99.90
42099;DHT22;27758;55.900;8.516;2022-10-31T16:47:25;13.60;99.90
42099;DHT22;27758;55.900;8.516;2022-10-31T16:49:51;13.50;99.90
42099;DHT22;27758;55.900;8.516;2022-10-31T16:52:37;13.50;99.90
42099;DHT22;27758;55.900;8.516;2022-10-31T16:55:03;13.50;99.90
42099;DHT22;27758;55.900;8.516;2022-10-31T16:57:29;13.40;99.90
42099;DHT22;27758;55.900;8.516;2022-10-31T16:59:57;13.40;99.90
42099;DHT22;27758;55.900;8.516;2022-10-31T17:02:23;13.40;99.90
42099;DHT22;27758;55.900;8.516;2022-10-31T17:04:48;13.40;99.90
42099;DHT22;27758;55.900;8.516;2022-10-31T17:07:14;13.20;99.90
42099;DHT22;27758;55.900;8.516;2022-10-31T17:09:40;13.20;99.90
42099;DHT22;27758;55.900;8.516;2022-10-31T17:12:09;13.10;99.90
42099;DHT22;27758;55.900;8.516;2022-10-31T17:14:39;13.10;99.90
42099;DHT22;27758;55.900;8.516;2022-10-31T17:17:04;13.00;99.90
42099;DHT22;27758;55.900;8.516;2022-10-31T17:19:30;13.00;99.90
42099;DHT22;27758;55.900;8.516;2022-10-31T17:21:56;12.90;99.90
42099;DHT22;27758;55.900;8.516;2022-10-31T17:24:22;12.90;99.90
42099;DHT22;27758;55.900;8.516;2022-10-31T17:26:47;12.80;99.90
42099;DHT22;27758;55.900;8.516;2022-10-31T17:29:13;12.80;99.90
42099;DHT22;27758;55.900;8.516;2022-10-31T17:31:39;12.80;99.90
42099;DHT22;27758;55.900;8.516;2022-10-31T17:34:07;12.70;99.90
42099;DHT22;27758;55.900;8.516;2022-10-31T17:36:34;12.70;99.90
42099;DHT22;27758;55.900;8.516;2022-10-31T17:39:00;12.70;99.90
42099;DHT22;27758;55.900;8.516;2022-10-31T17:41:27;12.60;99.90
42099;DHT22;27758;55.900;8.516;2022-10-31T17:43:57;12.50;99.90
42099;DHT22;27758;55.900;8.516;2022-10-31T17:46:23;12.40;99.90
42099;DHT22;27758;55.900;8.516;2022-10-31T17:48:50;12.40;99.90
42099;DHT22;27758;55.900;8.516;2022-10-31T17:51:15;12.30;99.90
42099;DHT22;27758;55.900;8.516;2022-10-31T17:53:41;12.20;99.90
42099;DHT22;27758;55.900;8.516;2022-10-31T17:56:08;12.20;99.90